Time;durP1;ratioP1;P1;durP2;ratioP2;P2;SDS_P1;SDS_P2;PMS_P1;PMS_P2;Temp;Humidity;BMP_temperature;BMP_pressure;BME280_temperature;BME280_humidity;BME280_pressure;Samples;Min_cycle;Max_cycle;Signal;HPM_P1;HPM_P2
2022/03/24 00:00:52;;;;;;;50.83;23.20;;;;;;;11.44;36.93;102828.63;5095866;28;20036;-63
2022/03/24 00:03:19;;;;;;;38.97;21.45;;;;;;;11.39;36.99;102830.66;5092359;28;20105;-64
2022/03/24 00:05:52;;;;;;;37.50;21.38;;;;;;;11.37;37.08;102827.16;5078571;28;20074;-64
2022/03/24 00:08:19;;;;;;;36.65;23.10;;;;;;;11.34;37.28;102829.97;5074921;28;20493;-63
2022/03/24 00:10:46;;;;;;;40.38;22.60;;;;;;;11.29;37.24;102831.13;5058758;28;20044;-64
2022/03/24 00:13:13;;;;;;;36.88;21.75;;;;;;;11.21;37.32;102823.38;5076614;28;20044;-63
2022/03/24 00:15:39;;;;;;;42.10;20.98;;;;;;;11.14;37.39;102824.53;5076265;28;20379;-64
2022/03/24 00:18:07;;;;;;;37.45;21.98;;;;;;;11.07;37.40;102826.59;5077342;28;20065;-64
2022/03/24 00:20:34;;;;;;;36.85;22.10;;;;;;;10.99;37.58;102827.88;5076372;28;20040;-65
2022/03/24 00:23:04;;;;;;;39.95;21.67;;;;;;;10.95;37.74;102826.25;5090249;28;20063;-63
2022/03/24 00:25:31;;;;;;;36.60;22.25;;;;;;;10.92;37.85;102823.69;5096325;28;20051;-64
2022/03/24 00:27:57;;;;;;;39.78;23.42;;;;;;;10.87;37.83;102823.88;5070332;28;20056;-64
2022/03/24 00:30:24;;;;;;;43.25;22.98;;;;;;;10.82;37.99;102833.94;5077928;28;20071;-64
2022/03/24 00:32:51;;;;;;;43.25;22.92;;;;;;;10.81;38.18;102818.75;5077443;28;20036;-64
2022/03/24 00:35:17;;;;;;;41.10;23.33;;;;;;;10.81;38.25;102824.13;5096250;28;20048;-63
2022/03/24 00:37:44;;;;;;;48.88;25.02;;;;;;;10.81;38.38;102814.25;5096306;28;20036;-64
2022/03/24 00:40:16;;;;;;;38.10;22.88;;;;;;;10.80;38.59;102814.31;5077922;28;20044;-63
2022/03/24 00:42:45;;;;;;;38.90;22.52;;;;;;;10.75;38.59;102811.81;5095762;28;20028;-63
2022/03/24 00:45:15;;;;;;;45.20;22.02;;;;;;;10.67;38.61;102819.31;5087078;28;20076;-63
2022/03/24 00:47:43;;;;;;;32.10;19.88;;;;;;;10.55;38.44;102810.84;5075619;28;20043;-64
2022/03/24 00:50:11;;;;;;;39.03;23.70;;;;;;;10.41;38.98;102801.53;5095091;28;20493;-64
2022/03/24 00:52:41;;;;;;;43.55;24.45;;;;;;;10.32;39.11;102811.72;5095221;28;20047;-64
2022/03/24 00:55:18;;;;;;;35.58;22.48;;;;;;;10.28;39.09;102807.41;5077200;28;20489;-64
2022/03/24 00:57:48;;;;;;;41.20;22.30;;;;;;;10.31;39.22;102796.53;5095889;28;20040;-63
2022/03/24 01:00:16;;;;;;;52.58;24.65;;;;;;;10.36;39.36;102807.97;5093554;28;20198;-64
2022/03/24 01:02:44;;;;;;;44.88;25.90;;;;;;;10.41;39.38;102798.84;5083046;28;20036;-64
2022/03/24 01:05:15;;;;;;;41.55;23.63;;;;;;;10.45;39.33;102791.53;5076829;28;20515;-63
2022/03/24 01:07:43;;;;;;;45.58;23.38;;;;;;;10.47;39.45;102800.41;5095454;28;20569;-64
2022/03/24 01:10:11;;;;;;;39.42;22.20;;;;;;;10.48;39.83;102796.78;5092767;28;20044;-63
2022/03/24 01:12:41;;;;;;;41.63;24.67;;;;;;;10.50;39.65;102800.28;5084935;28;20048;-64
2022/03/24 01:15:10;;;;;;;40.90;23.38;;;;;;;10.51;39.74;102804.72;5057664;28;20080;-63
2022/03/24 01:17:37;;;;;;;39.10;25.23;;;;;;;10.52;39.62;102797.53;5066222;28;20044;-63
2022/03/24 01:20:05;;;;;;;41.35;24.63;;;;;;;10.46;39.52;102793.28;5060720;28;20059;-63
2022/03/24 01:22:31;;;;;;;43.25;23.95;;;;;;;10.42;39.55;102791.66;5095099;28;20036;-63
2022/03/24 01:24:59;;;;;;;37.33;23.25;;;;;;;10.40;39.63;102789.03;5095259;28;20040;-63
2022/03/24 01:27:28;;;;;;;41.90;24.40;;;;;;;10.36;39.54;102786.50;5050419;28;20041;-63
2022/03/24 01:29:59;;;;;;;36.53;23.98;;;;;;;10.33;39.70;102784.81;5077091;28;20079;-65
2022/03/24 01:32:26;;;;;;;36.83;20.58;;;;;;;10.33;39.62;102789.31;5076015;28;20047;-64
2022/03/24 01:34:54;;;;;;;27.77;17.80;;;;;;;10.30;39.48;102789.44;5063122;28;20143;-64
2022/03/24 01:37:23;;;;;;;34.55;19.58;;;;;;;10.23;39.33;102788.78;5074554;28;20119;-63
2022/03/24 01:39:51;;;;;;;35.15;20.92;;;;;;;10.15;39.48;102786.38;5068236;28;20396;-63
2022/03/24 01:42:18;;;;;;;35.67;20.63;;;;;;;10.08;39.41;102790.22;5076765;28;20047;-62
2022/03/24 01:44:46;;;;;;;31.48;18.70;;;;;;;10.02;39.51;102790.47;5047049;28;20046;-63
2022/03/24 01:47:13;;;;;;;33.25;20.50;;;;;;;9.98;39.43;102780.78;5076294;28;20394;-63
2022/03/24 01:49:43;;;;;;;39.00;20.77;;;;;;;9.95;39.73;102780.88;5094993;28;20036;-63
2022/03/24 01:52:12;;;;;;;35.38;21.15;;;;;;;9.91;39.73;102773.88;5093256;28;20387;-64
2022/03/24 01:54:46;;;;;;;38.15;21.67;;;;;;;9.88;39.91;102777.56;5059670;28;20059;-64
2022/03/24 01:57:15;;;;;;;36.25;22.27;;;;;;;9.89;39.94;102775.75;5056589;28;20044;-62
2022/03/24 01:59:42;;;;;;;31.80;21.63;;;;;;;9.88;39.97;102774.00;5072183;28;20040;-63
2022/03/24 02:02:10;;;;;;;29.80;18.25;;;;;;;9.85;39.96;102779.47;5071938;28;20382;-64
2022/03/24 02:04:37;;;;;;;40.25;20.05;;;;;;;9.79;39.89;102775.22;5088933;28;20032;-63
2022/03/24 02:07:05;;;;;;;37.20;20.98;;;;;;;9.73;40.03;102772.75;5067409;28;20136;-63
2022/03/24 02:09:33;;;;;;;36.35;21.38;;;;;;;9.69;40.00;102772.94;5053773;28;20036;-64
2022/03/24 02:12:03;;;;;;;32.40;20.48;;;;;;;9.66;40.08;102768.56;5075688;28;20101;-64
2022/03/24 02:14:30;;;;;;;34.80;22.52;;;;;;;9.65;40.49;102768.56;5051463;28;20048;-63
2022/03/24 02:16:57;;;;;;;37.70;23.38;;;;;;;9.63;40.32;102763.25;5056125;28;20044;-63
2022/03/24 02:19:26;;;;;;;39.58;23.55;;;;;;;9.64;40.38;102765.00;5075655;28;20439;-63
2022/03/24 02:22:18;;;;;;;43.30;25.63;;;;;;;9.64;40.72;102767.69;5040858;28;20044;-64
2022/03/24 02:24:45;;;;;;;38.70;23.75;;;;;;;9.64;40.57;102765.00;5090620;28;20028;-63
2022/03/24 02:27:12;;;;;;;37.88;23.63;;;;;;;9.62;40.63;102760.63;5090690;28;20047;-63
2022/03/24 02:29:40;;;;;;;38.75;24.10;;;;;;;9.61;40.62;102765.13;5093631;28;20039;-63
2022/03/24 02:32:11;;;;;;;42.65;25.70;;;;;;;9.59;40.49;102758.94;5092813;28;20082;-63
2022/03/24 02:34:38;;;;;;;43.97;25.23;;;;;;;9.55;40.83;102763.53;5092986;28;20079;-63
2022/03/24 02:37:10;;;;;;;37.90;24.45;;;;;;;9.52;40.74;102760.97;5091374;28;20024;-63
2022/03/24 02:39:40;;;;;;;41.38;25.50;;;;;;;9.52;40.93;102760.97;5058193;28;20078;-63
2022/03/24 02:42:09;;;;;;;41.67;25.73;;;;;;;9.53;40.77;102765.41;5091789;28;20486;-64
2022/03/24 02:44:36;;;;;;;40.35;23.98;;;;;;;9.53;40.86;102761.84;5074996;28;20052;-63
2022/03/24 02:47:03;;;;;;;40.25;24.40;;;;;;;9.52;40.86;102760.97;5088486;28;20502;-64
2022/03/24 02:49:31;;;;;;;38.63;25.20;;;;;;;9.52;40.83;102754.72;5073570;28;20039;-63
2022/03/24 02:51:59;;;;;;;45.90;25.67;;;;;;;9.52;40.87;102755.59;5074013;28;20040;-63
2022/03/24 02:54:28;;;;;;;37.65;24.60;;;;;;;9.48;41.05;102759.34;5067529;28;20040;-63
2022/03/24 02:56:55;;;;;;;40.67;24.80;;;;;;;9.46;41.05;102763.00;5093464;28;20048;-64
2022/03/24 02:59:23;;;;;;;42.88;23.77;;;;;;;9.42;41.10;102756.88;5075489;28;20040;-63
2022/03/24 03:02:13;;;;;;;35.35;20.98;;;;;;;9.39;41.20;102765.03;5093734;28;20439;-64
2022/03/24 03:04:43;;;;;;;41.30;24.17;;;;;;;9.38;41.13;102762.41;5089428;28;20118;-63
2022/03/24 03:07:10;;;;;;;40.95;22.73;;;;;;;9.34;41.30;102764.31;5082711;28;20045;-63
2022/03/24 03:09:38;;;;;;;34.83;22.55;;;;;;;9.31;41.08;102759.06;5073159;28;20040;-62
2022/03/24 03:12:06;;;;;;;40.63;23.85;;;;;;;9.29;41.09;102762.72;5077155;28;20044;-63
2022/03/24 03:14:32;;;;;;;37.63;23.10;;;;;;;9.27;41.26;102761.91;5092835;28;20051;-64
2022/03/24 03:16:59;;;;;;;42.63;22.65;;;;;;;9.24;41.20;102758.41;5093438;28;20457;-64
2022/03/24 03:19:28;;;;;;;40.58;24.08;;;;;;;9.25;41.40;102764.63;5088762;28;20075;-63
2022/03/24 03:21:56;;;;;;;35.85;23.45;;;;;;;9.24;41.29;102760.22;5070373;28;20040;-63
2022/03/24 03:24:23;;;;;;;34.53;22.48;;;;;;;9.22;41.49;102765.63;5081800;28;20045;-62
2022/03/24 03:26:52;;;;;;;39.97;23.85;;;;;;;9.23;41.43;102772.75;5097086;28;20489;-63
2022/03/24 03:29:22;;;;;;;37.72;23.48;;;;;;;9.22;41.41;102765.63;5092496;28;20048;-63
2022/03/24 03:31:54;;;;;;;41.17;24.15;;;;;;;9.18;41.36;102769.34;5085678;28;20032;-63
2022/03/24 03:34:25;;;;;;;37.88;23.75;;;;;;;9.14;41.46;102762.34;5097497;28;20051;-63
2022/03/24 03:36:54;;;;;;;41.65;23.17;;;;;;;9.10;41.59;102762.50;5097573;28;20040;-63
2022/03/24 03:39:22;;;;;;;39.17;23.17;;;;;;;9.04;41.51;102763.56;5083787;28;20086;-63
2022/03/24 03:41:48;;;;;;;33.95;21.85;;;;;;;9.02;41.55;102765.44;5076863;28;20040;-64
2022/03/24 03:44:15;;;;;;;41.13;23.23;;;;;;;9.00;41.52;102769.09;5089246;28;20047;-63
2022/03/24 03:46:42;;;;;;;31.80;21.60;;;;;;;8.97;41.68;102769.19;5097236;28;20040;-63
2022/03/24 03:49:09;;;;;;;33.30;20.55;;;;;;;8.94;41.62;102766.63;5096779;28;20424;-63
2022/03/24 03:51:37;;;;;;;36.95;21.90;;;;;;;8.89;41.68;102761.38;5091333;28;20123;-62
2022/03/24 03:54:08;;;;;;;37.92;21.75;;;;;;;8.83;41.99;102767.81;5058979;28;20036;-62
2022/03/24 03:56:36;;;;;;;33.95;22.20;;;;;;;8.80;41.73;102769.72;5076970;28;20040;-63
2022/03/24 03:59:03;;;;;;;39.20;23.33;;;;;;;8.79;41.89;102768.84;5076895;28;20452;-63
2022/03/24 04:01:30;;;;;;;35.58;22.30;;;;;;;8.79;41.90;102774.22;5078153;28;20040;-62
2022/03/24 04:03:57;;;;;;;38.90;22.65;;;;;;;8.79;41.96;102771.53;5076582;28;20090;-63
2022/03/24 04:06:24;;;;;;;40.50;24.65;;;;;;;8.77;42.05;102767.16;5076447;28;20041;-62
2022/03/24 04:08:51;;;;;;;41.17;24.52;;;;;;;8.76;42.03;102771.63;5094292;28;20175;-64
2022/03/24 04:11:17;;;;;;;40.75;24.98;;;;;;;8.76;42.26;102776.13;5096944;28;20044;-62
2022/03/24 04:13:46;;;;;;;45.17;25.25;;;;;;;8.74;42.09;102776.16;5096595;28;20036;-62
2022/03/24 04:16:13;;;;;;;41.42;23.90;;;;;;;8.72;42.23;102777.16;5066621;28;20055;-63
2022/03/24 04:18:47;;;;;;;46.25;24.90;;;;;;;8.69;42.32;102778.13;5091922;28;20405;-64
2022/03/24 04:21:16;;;;;;;37.90;23.67;;;;;;;8.67;42.26;102763.91;5096486;28;20046;-63
2022/03/24 04:23:43;;;;;;;39.35;23.23;;;;;;;8.64;42.11;102774.72;5088944;28;20306;-63
2022/03/24 04:26:13;;;;;;;37.38;23.05;;;;;;;8.60;42.23;102775.75;5083255;28;20043;-64
2022/03/24 04:28:43;;;;;;;37.90;23.48;;;;;;;8.56;42.51;102779.44;5076266;28;20033;-63
2022/03/24 04:31:10;;;;;;;40.65;23.80;;;;;;;8.51;42.59;102779.59;5076040;28;20111;-63
2022/03/24 04:33:37;;;;;;;39.95;22.88;;;;;;;8.47;42.50;102777.94;5076199;28;20040;-63
2022/03/24 04:36:08;;;;;;;40.33;22.10;;;;;;;8.43;42.46;102781.63;5075632;28;20064;-63
2022/03/24 04:38:35;;;;;;;40.90;24.52;;;;;;;8.42;42.51;102777.19;5080631;28;20400;-62
2022/03/24 04:41:04;;;;;;;38.92;23.35;;;;;;;8.42;42.36;102779.88;5074330;28;20047;-63
2022/03/24 04:43:31;;;;;;;42.75;24.80;;;;;;;8.42;42.65;102777.19;5078689;28;20044;-62
2022/03/24 04:45:59;;;;;;;46.67;24.52;;;;;;;8.41;42.89;102774.56;5075793;28;20040;-63
2022/03/24 04:48:26;;;;;;;37.75;23.83;;;;;;;8.43;42.79;102778.06;5057940;28;20482;-63
2022/03/24 04:50:52;;;;;;;38.88;25.23;;;;;;;8.41;42.90;102779.94;5084955;28;20051;-63
2022/03/24 04:53:18;;;;;;;42.83;25.17;;;;;;;8.38;42.96;102778.22;5078264;28;20055;-64
2022/03/24 04:55:46;;;;;;;39.58;25.38;;;;;;;8.38;43.05;102777.34;5095329;28;20055;-62
2022/03/24 04:58:13;;;;;;;42.33;25.92;;;;;;;8.38;42.93;102780.03;5078630;28;20083;-63
2022/03/24 05:00:40;;;;;;;43.55;27.20;;;;;;;8.37;42.84;102775.59;5075665;28;20058;-64
2022/03/24 05:03:11;;;;;;;48.50;27.13;;;;;;;8.36;42.92;102779.19;5075581;28;20409;-64
2022/03/24 05:05:38;;;;;;;44.42;26.30;;;;;;;8.33;42.80;102784.59;5083128;28;20048;-63
2022/03/24 05:08:09;;;;;;;39.20;24.88;;;;;;;8.30;43.02;102785.56;5076608;28;20040;-63
2022/03/24 05:10:44;;;;;;;39.17;23.83;;;;;;;8.26;42.83;102787.47;5092340;28;20036;-63
2022/03/24 05:13:10;;;;;;;39.67;25.10;;;;;;;8.25;42.98;102783.03;5078563;28;20043;-63
2022/03/24 05:15:38;;;;;;;44.80;24.75;;;;;;;8.23;42.93;102776.88;5069647;28;20062;-63
2022/03/24 05:18:05;;;;;;;38.40;23.40;;;;;;;8.20;43.05;102778.75;5095211;28;20473;-63
2022/03/24 05:20:32;;;;;;;40.13;22.83;;;;;;;8.17;42.91;102785.03;5088593;28;20406;-63
2022/03/24 05:22:58;;;;;;;39.72;24.77;;;;;;;8.13;42.94;102780.72;5075195;28;20552;-62
2022/03/24 05:25:26;;;;;;;43.97;24.70;;;;;;;8.08;43.12;102779.97;5075163;28;20052;-63
2022/03/24 05:27:58;;;;;;;43.80;24.20;;;;;;;8.04;42.95;102783.66;5076387;28;20048;-62
2022/03/24 05:30:24;;;;;;;35.03;22.55;;;;;;;7.99;43.09;102790.94;5089349;28;20059;-63
2022/03/24 05:32:51;;;;;;;40.75;23.77;;;;;;;7.93;43.25;102783.97;5077546;28;20397;-63
2022/03/24 05:35:18;;;;;;;34.80;22.52;;;;;;;7.87;43.27;102789.50;5074675;28;20489;-64
2022/03/24 05:37:49;;;;;;;39.83;23.23;;;;;;;7.82;43.42;102787.88;5074611;28;20525;-63
2022/03/24 05:40:16;;;;;;;34.30;22.95;;;;;;;7.79;43.44;102791.53;5083037;28;20040;-65
2022/03/24 05:42:43;;;;;;;44.17;24.95;;;;;;;7.79;43.57;102788.84;5076979;28;20047;-64
2022/03/24 05:45:09;;;;;;;46.42;25.60;;;;;;;7.81;43.41;102791.47;5093685;28;20044;-63
2022/03/24 05:47:36;;;;;;;39.33;25.52;;;;;;;7.82;43.50;102793.22;5093566;28;20485;-63
2022/03/24 05:50:03;;;;;;;46.22;25.38;;;;;;;7.81;43.57;102791.47;5094737;28;20040;-62
2022/03/24 05:53:02;;;;;;;42.53;25.38;;;;;;;7.81;43.66;102797.69;5059031;28;20090;-64
2022/03/24 05:55:29;;;;;;;41.80;25.42;;;;;;;7.83;43.59;102793.19;5074662;28;20485;-63
2022/03/24 05:57:56;;;;;;;40.67;26.50;;;;;;;7.84;43.67;102792.25;5074190;28;20037;-63
2022/03/24 06:00:24;;;;;;;48.00;27.52;;;;;;;7.86;43.77;102790.44;5074859;28;20115;-63
2022/03/24 06:02:50;;;;;;;51.53;28.27;;;;;;;7.89;43.85;102794.81;5074176;28;20045;-64
2022/03/24 06:05:17;;;;;;;44.47;28.13;;;;;;;7.92;43.64;102795.59;5078086;28;20445;-63
2022/03/24 06:07:44;;;;;;;45.20;27.70;;;;;;;7.94;43.88;102795.56;5094584;28;20063;-63
2022/03/24 06:10:11;;;;;;;49.78;28.20;;;;;;;7.92;43.89;102795.59;5091150;28;20036;-62
2022/03/24 06:12:38;;;;;;;46.90;28.67;;;;;;;7.92;43.95;102800.94;5094298;28;20062;-63
2022/03/24 06:15:07;;;;;;;43.55;27.92;;;;;;;7.93;44.05;102809.84;5094414;28;20043;-62
2022/03/24 06:17:35;;;;;;;42.63;27.17;;;;;;;7.92;44.21;102805.41;5095964;28;20040;-62
2022/03/24 06:20:08;;;;;;;44.40;25.27;;;;;;;7.91;44.18;102809.00;5093460;28;20040;-62
2022/03/24 06:22:48;;;;;;;44.15;25.33;;;;;;;7.89;44.39;102811.75;5076462;28;20060;-62
2022/03/24 06:25:15;;;;;;;45.05;24.75;;;;;;;7.90;44.20;102810.81;5094161;28;20067;-63
2022/03/24 06:27:42;;;;;;;36.38;23.27;;;;;;;7.90;44.45;102802.78;5088027;28;20040;-63
2022/03/24 06:30:09;;;;;;;36.13;24.23;;;;;;;7.93;44.39;102809.84;5090741;28;20040;-63
2022/03/24 06:32:37;;;;;;;40.80;23.50;;;;;;;7.93;44.45;102805.38;5090731;28;20062;-63
2022/03/24 06:35:05;;;;;;;39.80;24.10;;;;;;;7.92;44.67;102806.31;5093686;28;20043;-63
2022/03/24 06:37:40;;;;;;;43.13;26.10;;;;;;;7.89;44.58;102808.19;5094247;28;20408;-64
2022/03/24 06:40:10;;;;;;;43.50;26.10;;;;;;;7.89;44.52;102810.84;5075761;28;20067;-63
2022/03/24 06:42:37;;;;;;;43.00;26.45;;;;;;;7.91;44.97;102809.00;5090311;28;20055;-62
2022/03/24 06:45:10;;;;;;;41.08;24.92;;;;;;;7.93;45.32;102808.06;5053937;28;20036;-63
2022/03/24 06:47:39;;;;;;;39.92;24.52;;;;;;;8.00;45.21;102807.88;5089988;28;20032;-63
2022/03/24 06:50:07;;;;;;;42.00;26.45;;;;;;;8.08;45.21;102812.09;5094009;28;20048;-63
2022/03/24 06:52:33;;;;;;;43.35;26.50;;;;;;;8.17;45.43;102817.16;5093433;28;20416;-63
2022/03/24 06:55:00;;;;;;;46.97;27.83;;;;;;;8.26;45.61;102800.84;5075893;28;20044;-63
2022/03/24 06:57:26;;;;;;;50.22;29.70;;;;;;;8.31;45.66;102811.44;5093489;28;20126;-63
2022/03/24 07:00:18;;;;;;;50.38;30.00;;;;;;;8.34;46.05;102807.81;5093101;28;20032;-65
2022/03/24 07:02:46;;;;;;;48.95;30.50;;;;;;;8.42;46.10;102803.97;5093486;28;20503;-63
2022/03/24 07:05:13;;;;;;;48.42;30.77;;;;;;;8.51;46.43;102811.72;5093480;28;20043;-62
2022/03/24 07:07:42;;;;;;;57.22;32.50;;;;;;;8.61;46.71;102804.28;5092449;28;20489;-62
2022/03/24 07:10:09;;;;;;;57.35;33.47;;;;;;;8.74;46.83;102812.78;5092810;28;20071;-62
2022/03/24 07:12:36;;;;;;;56.88;33.65;;;;;;;8.93;47.29;102803.25;5077231;28;20041;-62
2022/03/24 07:15:04;;;;;;;60.58;34.97;;;;;;;9.11;47.63;102812.50;5064541;28;20051;-62
2022/03/24 07:17:30;;;;;;;58.55;35.78;;;;;;;9.29;47.61;102806.50;5092574;28;20489;-63
2022/03/24 07:19:57;;;;;;;58.13;34.22;;;;;;;9.51;47.85;102812.88;5074448;28;20040;-62
2022/03/24 07:22:23;;;;;;;55.55;35.15;;;;;;;9.77;48.13;102813.78;5079956;28;20051;-63
2022/03/24 07:24:50;;;;;;;61.08;37.17;;;;;;;10.08;48.16;102825.13;5072441;28;20048;-63
2022/03/24 07:27:16;;;;;;;56.40;36.85;;;;;;;10.42;48.00;102821.22;5077520;28;20036;-63
2022/03/24 07:29:43;;;;;;;52.50;36.65;;;;;;;10.75;47.72;102817.19;5072078;28;20037;-63
2022/03/24 07:32:10;;;;;;;62.67;38.33;;;;;;;11.12;47.59;102827.28;5071918;28;20410;-63
2022/03/24 07:34:36;;;;;;;56.38;37.17;;;;;;;11.43;47.50;102815.25;5081430;28;20037;-63
2022/03/24 07:37:04;;;;;;;56.35;37.22;;;;;;;11.65;47.33;102821.44;5072406;28;20049;-64
2022/03/24 07:39:33;;;;;;;59.17;36.25;;;;;;;11.84;47.28;102816.16;5072069;28;20407;-63
2022/03/24 07:42:00;;;;;;;55.83;37.22;;;;;;;12.05;47.26;102815.19;5086800;28;20438;-64
2022/03/24 07:44:27;;;;;;;56.72;35.35;;;;;;;12.27;47.17;102814.22;5082114;28;20054;-63
2022/03/24 07:46:53;;;;;;;60.63;37.10;;;;;;;12.53;47.01;102819.22;5071965;28;20068;-64
2022/03/24 07:49:20;;;;;;;52.08;37.58;;;;;;;12.84;46.87;102815.94;5054089;28;20090;-64
2022/03/24 07:51:47;;;;;;;59.75;37.17;;;;;;;13.13;46.60;102808.22;5086331;28;20386;-64
2022/03/24 07:54:13;;;;;;;54.10;31.52;;;;;;;13.37;46.25;102809.69;5071972;28;20041;-64
2022/03/24 07:56:40;;;;;;;46.05;31.15;;;;;;;13.56;45.69;102817.75;5079252;28;20382;-63
2022/03/24 07:59:08;;;;;;;49.75;30.17;;;;;;;13.73;45.14;102819.56;5080781;28;20049;-64
2022/03/24 08:01:36;;;;;;;50.63;30.60;;;;;;;13.87;44.67;102820.56;5073480;28;20410;-63
2022/03/24 08:04:06;;;;;;;42.47;28.60;;;;;;;14.08;44.47;102823.94;5071574;28;20060;-64
2022/03/24 08:06:35;;;;;;;42.00;28.98;;;;;;;14.32;43.93;102819.91;5071846;28;20048;-64
2022/03/24 08:09:02;;;;;;;42.25;28.35;;;;;;;14.58;43.60;102823.03;5036849;28;1038370;-64
2022/03/24 08:11:29;;;;;;;43.85;29.05;;;;;;;14.86;43.35;102822.31;5089447;28;20444;-64
2022/03/24 08:13:56;;;;;;;47.88;28.55;;;;;;;15.12;42.93;102831.66;5076372;28;20059;-64
2022/03/24 08:16:27;;;;;;;50.92;30.02;;;;;;;15.29;42.27;102833.34;5077737;28;20045;-64
2022/03/24 08:18:54;;;;;;;59.65;30.70;;;;;;;15.41;41.82;102830.78;5076146;28;20036;-64
2022/03/24 08:21:21;;;;;;;55.70;30.33;;;;;;;15.50;41.64;102824.81;5080743;28;20048;-64
2022/03/24 08:23:48;;;;;;;56.45;30.00;;;;;;;15.63;41.44;102832.25;5093277;28;20719;-65
2022/03/24 08:26:15;;;;;;;55.92;30.73;;;;;;;15.78;41.14;102832.19;5084347;28;20044;-64
2022/03/24 08:28:41;;;;;;;62.58;30.58;;;;;;;15.90;40.67;102836.00;5096347;28;20048;-64
2022/03/24 08:31:08;;;;;;;70.75;30.42;;;;;;;16.02;40.45;102835.22;5085130;28;20064;-64
2022/03/24 08:33:34;;;;;;;62.55;31.00;;;;;;;16.17;40.29;102830.69;5090558;28;20048;-64
2022/03/24 08:36:01;;;;;;;64.82;30.85;;;;;;;16.30;39.91;102837.06;5077224;28;20072;-64
2022/03/24 08:38:28;;;;;;;48.30;28.73;;;;;;;16.49;39.79;102832.22;5075719;28;20045;-64
2022/03/24 08:40:55;;;;;;;57.35;28.27;;;;;;;16.65;39.37;102837.56;5084924;28;20048;-64
2022/03/24 08:43:21;;;;;;;59.30;29.30;;;;;;;16.82;39.33;102844.59;5083986;28;20050;-64
2022/03/24 08:45:48;;;;;;;43.75;27.33;;;;;;;17.00;38.79;102834.38;5096240;28;20044;-64
2022/03/24 08:48:14;;;;;;;41.17;27.13;;;;;;;17.13;38.57;102830.75;5095963;28;20440;-64
2022/03/24 08:50:41;;;;;;;41.65;27.55;;;;;;;17.25;38.54;102836.34;5096187;28;20051;-64
2022/03/24 08:53:07;;;;;;;47.53;29.42;;;;;;;17.39;38.51;102845.28;5096095;28;20462;-64
2022/03/24 08:55:34;;;;;;;43.03;28.88;;;;;;;17.52;38.21;102839.00;5095882;28;20044;-64
2022/03/24 08:58:01;;;;;;;49.70;28.05;;;;;;;17.66;38.21;102839.81;5074636;28;20037;-64
2022/03/24 09:00:27;;;;;;;39.05;27.25;;;;;;;17.79;37.89;102838.00;5096340;28;20111;-64
2022/03/24 09:02:55;;;;;;;40.70;27.98;;;;;;;17.91;37.77;102836.28;5095910;28;20039;-65
2022/03/24 09:05:23;;;;;;;43.05;30.30;;;;;;;17.98;37.68;102844.88;5077892;28;20040;-64
2022/03/24 09:07:50;;;;;;;44.58;31.02;;;;;;;18.05;38.01;102844.34;5094756;28;20075;-64
2022/03/24 09:10:17;;;;;;;38.60;28.23;;;;;;;18.22;38.54;102847.69;5095819;28;20051;-64
2022/03/24 09:12:45;;;;;;;42.90;28.42;;;;;;;18.43;37.95;102843.44;5076939;28;20040;-64
2022/03/24 09:15:14;;;;;;;42.28;28.73;;;;;;;18.62;38.08;102849.34;5087520;28;20051;-64
2022/03/24 09:17:41;;;;;;;40.25;27.08;;;;;;;18.79;37.29;102841.78;5095502;28;20055;-65
2022/03/24 09:20:10;;;;;;;37.67;26.42;;;;;;;18.87;36.73;102850.25;5094786;28;20406;-64
2022/03/24 09:22:42;;;;;;;35.10;26.05;;;;;;;18.93;36.26;102847.94;5061084;28;20046;-64
2022/03/24 09:25:10;;;;;;;43.53;27.45;;;;;;;19.01;36.27;102855.53;5075053;28;20211;-65
2022/03/24 09:27:38;;;;;;;38.47;27.10;;;;;;;19.09;36.04;102850.38;5074828;28;20052;-64
2022/03/24 09:30:11;;;;;;;37.67;26.10;;;;;;;19.26;36.07;102846.34;5074843;28;20048;-65
2022/03/24 09:32:38;;;;;;;36.33;27.35;;;;;;;19.47;36.09;102855.66;5090389;28;20040;-64
2022/03/24 09:35:05;;;;;;;36.42;26.95;;;;;;;19.63;36.16;102853.50;5095152;28;20044;-64
2022/03/24 09:37:33;;;;;;;33.15;23.00;;;;;;;19.77;35.65;102854.28;5081627;28;20041;-64
2022/03/24 09:40:01;;;;;;;44.55;22.17;;;;;;;19.85;35.13;102849.09;5056679;28;20044;-64
2022/03/24 09:42:28;;;;;;;29.73;21.27;;;;;;;19.95;34.54;102856.44;5060259;28;20033;-64
2022/03/24 09:45:03;;;;;;;29.88;21.30;;;;;;;20.05;34.48;102851.09;5074947;28;20043;-64
2022/03/24 09:47:30;;;;;;;30.30;21.42;;;;;;;20.19;33.84;102842.72;5088825;28;20044;-65
2022/03/24 09:49:57;;;;;;;29.83;21.75;;;;;;;20.29;33.24;102845.56;5086382;28;20036;-65
2022/03/24 09:52:25;;;;;;;30.85;21.35;;;;;;;20.36;32.75;102841.38;5090649;28;20047;-64
2022/03/24 09:54:52;;;;;;;28.30;20.65;;;;;;;20.49;32.86;102844.00;5094502;28;20035;-64
2022/03/24 09:57:20;;;;;;;31.35;22.52;;;;;;;20.58;32.43;102844.09;5094378;28;20044;-65
2022/03/24 09:59:47;;;;;;;39.17;22.80;;;;;;;20.65;32.57;102838.16;5094665;28;20069;-65
2022/03/24 10:02:14;;;;;;;25.65;20.30;;;;;;;20.75;32.16;102837.25;5094720;28;20055;-63
2022/03/24 10:04:50;;;;;;;28.13;21.55;;;;;;;20.84;31.80;102835.66;5078563;28;20552;-64
2022/03/24 10:07:17;;;;;;;;;;;;;;;20.92;32.08;102836.75;5074698;28;20041;-64
2022/03/24 10:09:46;;;;;;;28.02;19.70;;;;;;;21.11;31.85;102844.28;5090290;28;20415;-65
2022/03/24 10:12:19;;;;;;;25.75;19.27;;;;;;;21.21;30.73;102842.50;5094345;28;20561;-64
2022/03/24 10:15:09;;;;;;;26.27;19.67;;;;;;;21.32;30.65;102844.34;5094356;28;20050;-64
2022/03/24 10:17:38;;;;;;;24.58;17.55;;;;;;;21.47;30.19;102839.44;5094109;28;20079;-64
2022/03/24 10:20:08;;;;;;;23.65;18.02;;;;;;;21.61;29.45;102835.53;5084072;28;20496;-64
2022/03/24 10:22:36;;;;;;;28.58;19.55;;;;;;;21.73;29.55;102829.00;5091265;28;20032;-64
2022/03/24 10:25:19;;;;;;;24.77;19.27;;;;;;;21.88;28.69;102830.41;5092352;28;20036;-63
2022/03/24 10:28:00;;;;;;;25.98;19.95;;;;;;;22.01;28.98;102833.78;5093883;28;20044;-64
2022/03/24 10:30:27;;;;;;;24.58;19.73;;;;;;;22.11;28.85;102833.88;5094104;28;20516;-63
2022/03/24 10:32:56;;;;;;;24.70;20.63;;;;;;;22.22;28.05;102821.97;5093270;28;20044;-66
2022/03/24 10:35:23;;;;;;;27.23;20.38;;;;;;;22.29;27.97;102832.22;5093821;28;20040;-64
2022/03/24 10:37:51;;;;;;;29.20;20.90;;;;;;;22.34;28.18;102832.72;5091175;28;20074;-64
2022/03/24 10:40:18;;;;;;;27.92;21.38;;;;;;;22.37;27.85;102832.44;5093959;28;20039;-64
2022/03/24 10:42:45;;;;;;;26.38;20.67;;;;;;;22.46;27.72;102833.47;5093768;28;20094;-64
2022/03/24 10:45:21;;;;;;;26.65;21.05;;;;;;;22.56;27.69;102831.63;5078665;28;20052;-64
2022/03/24 10:47:55;;;;;;;29.92;22.48;;;;;;;22.67;27.12;102820.56;5074176;28;20048;-64
2022/03/24 10:50:29;;;;;;;28.67;20.80;;;;;;;22.74;26.79;102827.22;5077993;28;20489;-64
2022/03/24 10:53:16;;;;;;;27.75;21.60;;;;;;;22.82;26.94;102821.06;5074948;28;20067;-65
2022/03/24 10:56:06;;;;;;;27.60;20.70;;;;;;;22.92;26.66;102827.44;5073472;28;20056;-64
2022/03/24 10:58:38;;;;;;;28.20;22.13;;;;;;;22.99;26.34;102822.25;5091673;28;20451;-65
2022/03/24 11:01:07;;;;;;;26.13;20.92;;;;;;;23.04;26.29;102819.97;5084940;28;20036;-64
2022/03/24 11:03:34;;;;;;;29.63;21.45;;;;;;;23.14;26.13;102818.09;5073311;28;20044;-66
2022/03/24 11:06:10;;;;;;;27.55;21.60;;;;;;;23.19;25.81;102815.81;5074430;28;20040;-66
2022/03/24 11:08:37;;;;;;;27.05;20.27;;;;;;;23.25;25.70;102820.72;5072846;28;20094;-65
2022/03/24 11:11:09;;;;;;;25.85;19.30;;;;;;;23.31;25.52;102824.75;5088834;28;20036;-63
2022/03/24 11:13:44;;;;;;;27.30;21.83;;;;;;;23.37;25.41;102818.69;5091581;28;20036;-64
2022/03/24 11:16:12;;;;;;;29.05;21.80;;;;;;;23.42;25.15;102809.00;5093425;28;20076;-64
2022/03/24 11:18:40;;;;;;;26.80;21.02;;;;;;;23.46;25.03;102809.59;5090690;28;20036;-64
2022/03/24 11:21:13;;;;;;;25.85;20.50;;;;;;;23.51;25.01;102811.88;5075099;28;20060;-64